createdAt,value
2022-08-26T00:00:32.068Z,22.36
2022-08-26T00:06:04.330Z,22.31
2022-08-26T00:11:46.036Z,22.26
2022-08-26T00:14:24.184Z,22.23
2022-08-26T00:17:11.401Z,22.20
2022-08-26T00:20:06.772Z,22.09
2022-08-26T00:22:55.051Z,22.07
2022-08-26T00:25:38.754Z,21.98
2022-08-26T00:28:24.017Z,21.92
2022-08-26T00:33:44.040Z,21.78
2022-08-26T00:36:29.541Z,21.77
2022-08-26T00:39:13.855Z,21.64
2022-08-26T00:44:52.651Z,21.63
2022-08-26T00:47:47.586Z,21.60
2022-08-26T00:50:20.309Z,21.61
2022-08-26T00:52:48.269Z,21.67
2022-08-26T00:55:38.261Z,21.58
2022-08-26T00:58:08.682Z,21.53
2022-08-26T01:00:37.183Z,21.47
2022-08-26T01:03:05.741Z,21.32
2022-08-26T01:05:41.729Z,21.35
2022-08-26T01:08:11.635Z,21.27
2022-08-26T01:10:42.731Z,21.35
2022-08-26T01:13:11.460Z,21.33
2022-08-26T01:15:44.899Z,21.26
2022-08-26T01:18:16.220Z,21.27
2022-08-26T01:21:05.381Z,21.09
2022-08-26T01:23:39.024Z,21.14
2022-08-26T01:26:19.653Z,21.02
2022-08-26T01:28:50.589Z,20.98
2022-08-26T01:31:21.086Z,21.00
2022-08-26T01:34:10.726Z,20.91
2022-08-26T01:36:38.640Z,20.94
2022-08-26T01:39:07.237Z,20.83
2022-08-26T01:41:41.200Z,20.81
2022-08-26T01:44:15.408Z,20.83
2022-08-26T01:46:46.591Z,20.82
2022-08-26T01:49:15.251Z,20.77
2022-08-26T01:51:43.489Z,20.96
2022-08-26T01:54:17.440Z,21.61
2022-08-26T01:56:52.772Z,22.02
2022-08-26T01:59:21.091Z,22.00
2022-08-26T02:01:49.448Z,22.09
2022-08-26T02:04:26.490Z,22.16
2022-08-26T02:06:55.015Z,22.13
2022-08-26T02:09:24.805Z,21.86
2022-08-26T02:11:52.847Z,21.95
2022-08-26T02:14:22.973Z,22.09
2022-08-26T02:16:54.907Z,22.10
2022-08-26T02:19:27.189Z,22.10
2022-08-26T02:21:54.392Z,21.97
2022-08-26T02:24:24.131Z,22.02
2022-08-26T02:26:57.950Z,21.87
2022-08-26T02:29:32.117Z,21.78
2022-08-26T02:31:59.390Z,21.49
2022-08-26T02:34:31.070Z,21.34
2022-08-26T02:37:00.191Z,21.71
2022-08-26T02:39:27.773Z,21.55
2022-08-26T02:41:55.627Z,21.63
2022-08-26T02:44:26.681Z,21.54
2022-08-26T02:46:57.716Z,21.59
2022-08-26T02:49:29.497Z,21.59
2022-08-26T02:52:00.267Z,21.97
2022-08-26T02:54:29.347Z,21.79
2022-08-26T02:56:57.297Z,21.65
2022-08-26T02:59:25.056Z,21.64
2022-08-26T03:01:52.373Z,21.62
2022-08-26T03:04:25.734Z,21.87
2022-08-26T03:06:53.860Z,21.67
2022-08-26T03:09:23.419Z,21.55
2022-08-26T03:11:54.114Z,21.40
2022-08-26T03:14:22.830Z,21.31
2022-08-26T03:16:51.185Z,21.24
2022-08-26T03:19:22.080Z,21.25
2022-08-26T03:21:53.228Z,21.25
2022-08-26T03:24:25.634Z,21.35
2022-08-26T03:26:53.197Z,21.24
2022-08-26T03:29:21.554Z,21.39
2022-08-26T03:31:48.903Z,21.44
2022-08-26T03:34:22.122Z,21.33
2022-08-26T03:36:53.355Z,21.20
2022-08-26T03:39:25.962Z,21.19
2022-08-26T03:41:53.381Z,21.05
2022-08-26T03:44:21.119Z,21.03
2022-08-26T03:46:49.391Z,21.25
2022-08-26T03:49:19.913Z,21.13
2022-08-26T03:51:50.526Z,21.20
2022-08-26T03:54:20.897Z,21.34
2022-08-26T03:56:52.091Z,21.14
2022-08-26T03:59:23.720Z,21.26
2022-08-26T04:02:02.406Z,21.11
2022-08-26T04:04:33.522Z,21.22
2022-08-26T04:07:05.665Z,21.16
2022-08-26T04:09:40.961Z,21.14
2022-08-26T04:12:10.931Z,21.38
2022-08-26T04:14:47.933Z,21.09
2022-08-26T04:17:17.096Z,21.23
2022-08-26T04:19:45.499Z,21.35
2022-08-26T04:22:13.961Z,21.22
2022-08-26T04:24:42.870Z,21.33
2022-08-26T04:27:14.218Z,21.51
2022-08-26T04:29:44.054Z,21.48
2022-08-26T04:32:11.301Z,21.75
2022-08-26T04:34:42.461Z,21.94
2022-08-26T04:37:12.582Z,22.10
2022-08-26T04:39:40.993Z,22.05
2022-08-26T04:42:21.085Z,21.98
2022-08-26T04:44:56.040Z,21.90
2022-08-26T04:47:30.421Z,21.81
2022-08-26T04:50:03.363Z,21.96
2022-08-26T04:52:31.313Z,22.12
2022-08-26T04:55:02.188Z,22.38
2022-08-26T04:57:33.160Z,22.29
2022-08-26T05:00:00.852Z,21.93
2022-08-26T05:02:32.156Z,21.81
2022-08-26T05:05:02.902Z,22.05
2022-08-26T05:07:31.893Z,22.26
2022-08-26T05:10:02.966Z,22.18
2022-08-26T05:12:31.728Z,21.91
2022-08-26T05:14:59.651Z,21.86
2022-08-26T05:17:29.987Z,21.94
2022-08-26T05:20:00.089Z,22.22
2022-08-26T05:22:30.184Z,22.40
2022-08-26T05:24:59.833Z,22.34
2022-08-26T05:27:30.052Z,22.23
2022-08-26T05:29:57.890Z,22.21
2022-08-26T05:32:25.222Z,22.68
2022-08-26T05:34:58.656Z,23.02
2022-08-26T05:37:26.093Z,22.78
2022-08-26T05:39:56.671Z,22.92
2022-08-26T05:42:26.463Z,22.98
2022-08-26T05:44:56.068Z,23.08
2022-08-26T05:47:28.644Z,23.07
2022-08-26T05:49:59.663Z,23.10
2022-08-26T05:52:34.038Z,23.30
2022-08-26T05:55:07.892Z,23.34
2022-08-26T05:57:40.391Z,23.33
2022-08-26T06:00:10.737Z,23.54
2022-08-26T06:02:41.620Z,24.20
2022-08-26T06:05:08.980Z,24.75
2022-08-26T06:07:36.718Z,24.94
2022-08-26T06:10:31.197Z,24.95
2022-08-26T06:13:11.619Z,25.23
2022-08-26T06:15:44.468Z,25.17
2022-08-26T06:18:19.733Z,25.26
2022-08-26T06:20:49.519Z,25.18
2022-08-26T06:23:26.635Z,24.94
2022-08-26T06:25:57.089Z,24.64
2022-08-26T06:28:28.297Z,24.71
2022-08-26T06:30:56.044Z,24.83
2022-08-26T06:33:27.333Z,24.97
2022-08-26T06:35:57.986Z,24.96
2022-08-26T06:38:28.980Z,25.09
2022-08-26T06:40:58.517Z,25.34
2022-08-26T06:43:33.189Z,25.16
2022-08-26T06:46:05.318Z,25.21
2022-08-26T06:48:37.067Z,25.46
2022-08-26T06:51:10.600Z,25.61
2022-08-26T06:53:38.809Z,25.62
2022-08-26T06:56:10.370Z,25.70
2022-08-26T06:58:39.382Z,25.98
2022-08-26T07:01:34.530Z,26.00
2022-08-26T07:04:10.423Z,26.29
2022-08-26T07:06:39.882Z,26.50
2022-08-26T07:09:11.313Z,26.32
2022-08-26T07:11:39.486Z,26.47
2022-08-26T07:14:14.952Z,26.51
2022-08-26T07:16:42.770Z,26.69
2022-08-26T07:19:31.109Z,26.71
2022-08-26T07:22:03.947Z,26.86
2022-08-26T07:24:35.675Z,26.68
2022-08-26T07:27:07.122Z,26.71
2022-08-26T07:29:38.175Z,26.92
2022-08-26T07:32:09.347Z,27.25
2022-08-26T07:34:38.470Z,27.50
2022-08-26T07:37:06.132Z,27.60
2022-08-26T07:39:40.303Z,27.42
2022-08-26T07:42:11.401Z,27.67
2022-08-26T07:44:41.917Z,27.62
2022-08-26T07:47:25.697Z,27.64
2022-08-26T07:49:57.056Z,27.92
2022-08-26T07:52:29.874Z,28.07
2022-08-26T07:54:58.752Z,28.06
2022-08-26T07:57:26.645Z,28.23
2022-08-26T07:59:57.183Z,28.30
2022-08-26T08:02:28.256Z,28.46
2022-08-26T08:04:58.934Z,28.56
2022-08-26T08:07:38.674Z,28.60
2022-08-26T08:10:16.105Z,28.69
2022-08-26T08:12:47.172Z,28.86
2022-08-26T08:15:16.072Z,28.88
2022-08-26T08:17:47.250Z,29.00
2022-08-26T08:20:18.102Z,29.06
2022-08-26T08:22:48.634Z,29.18
2022-08-26T08:25:17.230Z,29.27
2022-08-26T08:27:45.089Z,29.37
2022-08-26T08:30:22.710Z,29.46
2022-08-26T08:32:51.054Z,29.51
2022-08-26T08:35:19.376Z,29.44
2022-08-26T08:37:51.037Z,29.55
2022-08-26T08:40:21.931Z,29.66
2022-08-26T08:43:18.594Z,29.67
2022-08-26T08:45:58.151Z,29.70
2022-08-26T08:48:37.995Z,29.74
2022-08-26T08:51:06.032Z,29.82
2022-08-26T08:53:40.563Z,29.86
2022-08-26T08:56:09.845Z,30.05
2022-08-26T08:58:49.658Z,29.58
2022-08-26T09:01:25.779Z,29.76
2022-08-26T09:04:08.617Z,29.69
2022-08-26T09:06:41.621Z,29.89
2022-08-26T09:09:16.506Z,30.05
2022-08-26T09:11:44.460Z,30.25
2022-08-26T09:14:17.860Z,30.20
2022-08-26T09:16:55.146Z,30.37
2022-08-26T09:19:25.907Z,30.29
2022-08-26T09:21:57.350Z,30.25
2022-08-26T09:24:28.378Z,30.28
2022-08-26T09:26:59.648Z,30.35
2022-08-26T09:29:32.297Z,30.50
2022-08-26T09:32:14.836Z,30.55
2022-08-26T09:35:00.452Z,30.47
2022-08-26T09:37:42.652Z,30.58
2022-08-26T09:40:20.351Z,30.61
2022-08-26T09:42:48.223Z,30.67
2022-08-26T09:45:30.788Z,30.77
2022-08-26T09:48:01.807Z,30.87
2022-08-26T09:50:40.019Z,30.50
2022-08-26T09:53:13.059Z,30.43
2022-08-26T09:55:47.059Z,30.65
2022-08-26T09:58:15.782Z,30.77
2022-08-26T10:01:00.035Z,31.04
2022-08-26T10:03:31.583Z,31.07
2022-08-26T10:06:05.136Z,31.03
2022-08-26T10:08:40.901Z,30.95
2022-08-26T10:11:22.224Z,30.91
2022-08-26T10:13:54.940Z,30.83
2022-08-26T10:16:40.057Z,30.89
2022-08-26T10:19:16.991Z,30.97
2022-08-26T10:21:48.061Z,31.00
2022-08-26T10:24:22.343Z,30.62
2022-08-26T10:26:59.809Z,30.68
2022-08-26T10:29:45.730Z,30.95
2022-08-26T10:32:32.829Z,31.02
2022-08-26T10:35:04.629Z,31.18
2022-08-26T10:37:38.839Z,31.21
2022-08-26T10:40:07.012Z,31.17
2022-08-26T10:42:34.318Z,30.97
2022-08-26T10:45:15.841Z,30.92
2022-08-26T10:47:50.272Z,30.95
2022-08-26T10:50:31.143Z,31.03
2022-08-26T10:53:13.838Z,31.01
2022-08-26T10:55:59.744Z,31.04
2022-08-26T10:58:37.594Z,31.08
2022-08-26T11:01:11.166Z,31.01
2022-08-26T11:03:42.429Z,30.98
2022-08-26T11:06:18.947Z,30.97
2022-08-26T11:08:50.142Z,31.03
2022-08-26T11:11:38.490Z,30.97
2022-08-26T11:14:07.239Z,31.02
2022-08-26T11:16:43.623Z,31.07
2022-08-26T11:19:50.528Z,31.09
2022-08-26T11:22:33.689Z,31.08
2022-08-26T11:25:04.273Z,31.04
2022-08-26T11:27:44.547Z,31.03
2022-08-26T11:30:15.884Z,30.88
2022-08-26T11:32:54.297Z,30.97
2022-08-26T11:35:23.872Z,30.93
2022-08-26T11:37:58.767Z,30.95
2022-08-26T11:40:34.057Z,31.07
2022-08-26T11:43:07.595Z,31.24
2022-08-26T11:45:43.217Z,31.16
2022-08-26T11:48:29.257Z,31.02
2022-08-26T11:50:58.054Z,30.96
2022-08-26T11:53:31.358Z,30.85
2022-08-26T11:56:05.810Z,30.92
2022-08-26T11:58:41.974Z,30.85
2022-08-26T12:01:21.534Z,30.89
2022-08-26T12:03:55.328Z,30.88
2022-08-26T12:08:55.665Z,30.98
2022-08-26T12:11:34.387Z,30.78
2022-08-26T12:14:07.394Z,30.98
2022-08-26T12:16:38.368Z,30.96
2022-08-26T12:19:28.906Z,31.12
2022-08-26T12:22:15.528Z,31.44
2022-08-26T12:24:46.650Z,31.21
2022-08-26T12:27:19.126Z,31.14
2022-08-26T12:30:12.464Z,31.19
2022-08-26T12:32:57.199Z,31.04
2022-08-26T12:35:26.352Z,30.98
2022-08-26T12:37:55.143Z,30.85
2022-08-26T12:40:31.754Z,30.79
2022-08-26T12:43:04.404Z,30.79
2022-08-26T12:45:42.594Z,30.77
2022-08-26T12:48:16.258Z,30.78
2022-08-26T12:50:50.929Z,30.79
2022-08-26T12:53:31.060Z,30.75
2022-08-26T12:56:04.741Z,30.77
2022-08-26T12:58:37.606Z,30.70
2022-08-26T13:01:23.165Z,30.74
2022-08-26T13:03:59.670Z,30.76
2022-08-26T13:06:47.233Z,30.71
2022-08-26T13:09:28.831Z,30.69
2022-08-26T13:12:02.554Z,30.64
2022-08-26T13:14:33.252Z,30.64
2022-08-26T13:17:09.787Z,30.63
2022-08-26T13:19:46.666Z,30.56
2022-08-26T13:22:19.325Z,30.55
2022-08-26T13:24:51.603Z,30.48
2022-08-26T13:27:24.999Z,30.54
2022-08-26T13:30:02.664Z,30.70
2022-08-26T13:32:37.608Z,30.86
2022-08-26T13:35:11.660Z,30.86
2022-08-26T13:37:45.005Z,30.82
2022-08-26T13:40:14.094Z,30.82
2022-08-26T13:42:49.798Z,30.74
2022-08-26T13:45:22.510Z,30.67
2022-08-26T13:47:58.373Z,30.59
2022-08-26T13:50:26.298Z,30.57
2022-08-26T13:52:56.233Z,30.60
2022-08-26T13:55:35.047Z,30.61
2022-08-26T13:58:04.764Z,30.58
2022-08-26T14:00:41.193Z,30.66
2022-08-26T14:03:13.070Z,30.61
2022-08-26T14:05:43.689Z,30.56
2022-08-26T14:08:14.029Z,30.52
2022-08-26T14:10:45.298Z,30.44
2022-08-26T14:13:19.071Z,30.45
2022-08-26T14:15:54.957Z,30.51
2022-08-26T14:18:26.758Z,30.48
2022-08-26T14:21:00.936Z,30.40
2022-08-26T14:23:30.963Z,30.35
2022-08-26T14:26:10.924Z,30.29
2022-08-26T14:28:45.488Z,30.26
2022-08-26T14:31:25.594Z,30.35
2022-08-26T14:33:53.662Z,30.18
2022-08-26T14:36:25.541Z,30.10
2022-08-26T14:38:57.468Z,30.05
2022-08-26T14:41:28.534Z,30.01
2022-08-26T14:43:59.105Z,29.94
2022-08-26T14:46:31.194Z,29.96
2022-08-26T14:49:01.815Z,29.91
2022-08-26T14:51:33.003Z,29.96
2022-08-26T14:54:03.832Z,29.97
2022-08-26T14:56:34.466Z,29.95
2022-08-26T14:59:05.398Z,29.95
2022-08-26T15:01:36.347Z,29.96
2022-08-26T15:04:03.803Z,29.96
2022-08-26T15:06:33.320Z,29.95
2022-08-26T15:09:09.619Z,29.95
2022-08-26T15:11:37.441Z,29.95
2022-08-26T15:14:19.002Z,29.85
2022-08-26T15:16:55.553Z,29.77
2022-08-26T15:19:29.181Z,29.68
2022-08-26T15:22:00.143Z,29.66
2022-08-26T15:24:30.797Z,29.63
2022-08-26T15:27:01.531Z,29.57
2022-08-26T15:29:29.531Z,29.55
2022-08-26T15:31:57.821Z,29.52
2022-08-26T15:34:27.998Z,29.42
2022-08-26T15:37:02.879Z,29.42
2022-08-26T15:39:34.189Z,29.43
2022-08-26T15:42:05.171Z,29.35
2022-08-26T15:44:38.519Z,29.33
2022-08-26T15:47:12.245Z,29.25
2022-08-26T15:49:43.006Z,29.19
2022-08-26T15:52:20.668Z,29.15
2022-08-26T15:54:52.494Z,29.10
2022-08-26T15:57:20.512Z,29.16
2022-08-26T15:59:49.303Z,29.11
2022-08-26T16:02:21.848Z,29.07
2022-08-26T16:04:54.519Z,29.02
2022-08-26T16:07:22.364Z,28.93
2022-08-26T16:09:55.724Z,28.86
2022-08-26T16:12:31.465Z,28.82
2022-08-26T16:14:59.747Z,28.77
2022-08-26T16:17:29.963Z,28.73
2022-08-26T16:20:01.256Z,28.69
2022-08-26T16:22:28.626Z,28.62
2022-08-26T16:25:08.443Z,28.59
2022-08-26T16:27:39.310Z,28.57
2022-08-26T16:30:07.972Z,28.53
2022-08-26T16:32:42.454Z,28.53
2022-08-26T16:35:13.149Z,28.45
2022-08-26T16:37:43.282Z,28.38
2022-08-26T16:40:14.323Z,28.31
2022-08-26T16:42:44.991Z,28.25
2022-08-26T16:45:12.866Z,28.23
2022-08-26T16:47:40.612Z,28.17
2022-08-26T16:50:09.221Z,28.12
2022-08-26T16:52:36.807Z,28.07
2022-08-26T16:55:04.978Z,28.02
2022-08-26T16:57:44.392Z,27.87
2022-08-26T17:00:18.884Z,27.83
2022-08-26T17:02:53.174Z,27.76
2022-08-26T17:05:23.574Z,27.68
2022-08-26T17:07:58.568Z,27.63
2022-08-26T17:10:29.757Z,27.57
2022-08-26T17:13:00.099Z,27.49
2022-08-26T17:15:30.206Z,27.45
2022-08-26T17:18:05.481Z,27.39
2022-08-26T17:20:34.393Z,27.33
2022-08-26T17:23:09.654Z,27.20
2022-08-26T17:25:40.093Z,27.10
2022-08-26T17:28:13.486Z,26.98
2022-08-26T17:30:41.642Z,26.98
2022-08-26T17:33:17.096Z,26.91
2022-08-26T17:35:50.077Z,26.90
2022-08-26T17:38:24.066Z,26.85
2022-08-26T17:40:51.898Z,26.75
2022-08-26T17:43:22.678Z,26.70
2022-08-26T17:45:50.003Z,26.66
2022-08-26T17:48:17.374Z,26.60
2022-08-26T17:50:45.517Z,26.62
2022-08-26T17:53:19.028Z,26.66
2022-08-26T17:55:49.786Z,26.66
2022-08-26T17:58:18.891Z,26.64
2022-08-26T18:00:52.203Z,26.60
2022-08-26T18:03:22.241Z,26.61
2022-08-26T18:05:50.623Z,26.51
2022-08-26T18:08:23.035Z,26.29
2022-08-26T18:10:51.063Z,26.29
2022-08-26T18:13:21.374Z,26.37
2022-08-26T18:15:48.801Z,26.28
2022-08-26T18:18:16.916Z,26.31
2022-08-26T18:20:45.054Z,26.17
2022-08-26T18:23:15.463Z,26.01
2022-08-26T18:25:46.127Z,25.99
2022-08-26T18:28:13.500Z,26.07
2022-08-26T18:30:44.773Z,26.08
2022-08-26T18:33:14.350Z,26.05
2022-08-26T18:35:45.555Z,25.97
2022-08-26T18:38:13.457Z,25.94
2022-08-26T18:40:50.971Z,25.89
2022-08-26T18:43:24.454Z,25.91
2022-08-26T18:46:02.738Z,25.92
2022-08-26T18:48:30.166Z,25.90
2022-08-26T18:51:04.669Z,25.79
2022-08-26T18:53:38.174Z,25.85
2022-08-26T18:56:06.093Z,25.84
2022-08-26T18:58:36.318Z,25.86
2022-08-26T19:01:07.202Z,25.90
2022-08-26T19:03:34.772Z,25.83
2022-08-26T19:06:02.366Z,25.77
2022-08-26T19:08:29.830Z,25.75
2022-08-26T19:10:58.978Z,25.75
2022-08-26T19:13:26.293Z,25.64
2022-08-26T19:15:53.625Z,25.50
2022-08-26T19:18:21.834Z,25.53
2022-08-26T19:20:49.591Z,25.51
2022-08-26T19:23:30.969Z,25.43
2022-08-26T19:26:02.503Z,25.45
2022-08-26T19:28:30.442Z,25.42
2022-08-26T19:30:58.245Z,25.34
2022-08-26T19:33:25.905Z,25.37
2022-08-26T19:35:53.327Z,25.54
2022-08-26T19:38:20.965Z,25.53
2022-08-26T19:40:48.174Z,25.43
2022-08-26T19:43:15.489Z,25.37
2022-08-26T19:45:45.384Z,25.28
2022-08-26T19:48:12.801Z,25.23
2022-08-26T19:50:40.236Z,24.94
2022-08-26T19:53:07.848Z,24.94
2022-08-26T19:55:35.088Z,24.89
2022-08-26T19:58:02.480Z,24.85
2022-08-26T20:00:30.433Z,24.78
2022-08-26T20:02:58.614Z,24.61
2022-08-26T20:05:27.090Z,24.43
2022-08-26T20:07:54.550Z,24.38
2022-08-26T20:10:22.876Z,24.48
2022-08-26T20:12:52.149Z,24.44
2022-08-26T20:15:21.815Z,24.46
2022-08-26T20:17:52.140Z,24.41
2022-08-26T20:20:32.623Z,24.34
2022-08-26T20:23:04.014Z,24.23
2022-08-26T20:25:32.234Z,24.17
2022-08-26T20:27:59.605Z,24.17
2022-08-26T20:30:26.986Z,24.19
2022-08-26T20:32:54.251Z,24.15
2022-08-26T20:35:23.002Z,24.05
2022-08-26T20:37:51.281Z,24.08
2022-08-26T20:40:18.797Z,24.11
2022-08-26T20:42:49.342Z,23.99
2022-08-26T20:45:16.766Z,24.05
2022-08-26T20:47:44.544Z,23.98
2022-08-26T20:50:11.774Z,23.87
2022-08-26T20:52:39.232Z,23.95
2022-08-26T20:55:06.807Z,24.08
2022-08-26T20:57:34.387Z,23.96
2022-08-26T21:00:01.794Z,23.95
2022-08-26T21:02:29.004Z,23.95
2022-08-26T21:04:56.420Z,23.95
2022-08-26T21:07:23.826Z,23.90
2022-08-26T21:09:51.647Z,23.70
2022-08-26T21:12:19.022Z,23.61
2022-08-26T21:14:49.560Z,23.43
2022-08-26T21:17:17.418Z,23.20
2022-08-26T21:19:44.719Z,23.20
2022-08-26T21:22:12.001Z,23.26
2022-08-26T21:24:39.286Z,23.30
2022-08-26T21:27:06.747Z,23.21
2022-08-26T21:29:34.273Z,23.24
2022-08-26T21:32:02.373Z,23.14
2022-08-26T21:34:29.810Z,23.15
2022-08-26T21:36:57.793Z,23.15
2022-08-26T21:39:25.503Z,23.18
2022-08-26T21:41:53.141Z,23.36
2022-08-26T21:44:20.436Z,23.36
2022-08-26T21:46:48.419Z,23.33
2022-08-26T21:49:16.722Z,23.46
2022-08-26T21:51:46.015Z,23.55
2022-08-26T21:54:16.286Z,23.65
2022-08-26T21:56:46.903Z,23.55
2022-08-26T21:59:18.138Z,23.58
2022-08-26T22:01:45.685Z,23.57
2022-08-26T22:04:15.999Z,23.72
2022-08-26T22:06:45.238Z,23.66
2022-08-26T22:09:13.773Z,23.59
2022-08-26T22:11:41.182Z,23.67
2022-08-26T22:14:08.458Z,23.72
2022-08-26T22:16:35.894Z,23.75
2022-08-26T22:19:03.547Z,23.67
2022-08-26T22:21:31.176Z,23.50
2022-08-26T22:23:58.794Z,23.29
2022-08-26T22:26:28.742Z,23.22
2022-08-26T22:28:59.032Z,23.31
2022-08-26T22:31:37.277Z,23.35
2022-08-26T22:34:10.657Z,23.37
2022-08-26T22:36:43.718Z,23.38
2022-08-26T22:39:12.745Z,23.23
2022-08-26T22:41:40.422Z,23.11
2022-08-26T22:44:08.021Z,23.16
2022-08-26T22:46:36.119Z,23.24
2022-08-26T22:49:03.626Z,23.25
2022-08-26T22:51:30.941Z,23.23
2022-08-26T22:53:58.211Z,23.22
2022-08-26T22:56:25.554Z,23.19
2022-08-26T22:58:53.198Z,23.13
2022-08-26T23:01:20.645Z,23.15
2022-08-26T23:03:48.051Z,23.10
2022-08-26T23:06:15.417Z,23.12
2022-08-26T23:08:47.285Z,23.12
2022-08-26T23:11:14.808Z,23.15
2022-08-26T23:13:42.277Z,23.23
2022-08-26T23:16:11.239Z,23.22
2022-08-26T23:18:39.372Z,23.12
2022-08-26T23:21:09.440Z,22.98
2022-08-26T23:23:36.859Z,22.93
2022-08-26T23:26:06.286Z,22.93
2022-08-26T23:28:34.723Z,22.87
2022-08-26T23:31:01.995Z,22.85
2022-08-26T23:33:29.301Z,22.80
2022-08-26T23:35:56.566Z,22.66
2022-08-26T23:38:23.880Z,22.75
2022-08-26T23:40:53.417Z,22.78
2022-08-26T23:43:20.689Z,22.61
2022-08-26T23:45:47.960Z,22.59
2022-08-26T23:48:15.262Z,22.55
2022-08-26T23:50:46.750Z,22.44
2022-08-26T23:53:15.743Z,22.44
2022-08-26T23:55:43.033Z,22.54
2022-08-26T23:58:10.416Z,22.60
